createdAt,value
2022-11-12T00:01:37.720Z,2.88
2022-11-12T00:04:22.555Z,2.75
2022-11-12T00:07:07.366Z,2.72
2022-11-12T00:09:52.263Z,2.99
2022-11-12T00:12:37.288Z,2.96
2022-11-12T00:15:22.426Z,2.99
2022-11-12T00:18:07.933Z,2.82
2022-11-12T00:20:52.750Z,2.87
2022-11-12T00:23:37.687Z,2.97
2022-11-12T00:26:22.625Z,2.99
2022-11-12T00:29:07.623Z,2.92
2022-11-12T00:31:52.482Z,2.78
2022-11-12T00:34:37.404Z,2.89
2022-11-12T00:37:23.172Z,2.88
2022-11-12T00:40:09.004Z,2.84
2022-11-12T00:42:54.102Z,2.79
2022-11-12T00:45:38.913Z,2.90
2022-11-12T00:48:23.962Z,2.91
2022-11-12T00:51:09.487Z,3.01
2022-11-12T00:53:54.653Z,3.15
2022-11-12T00:56:39.648Z,3.22
2022-11-12T00:59:24.539Z,3.25
2022-11-12T01:02:09.431Z,3.35
2022-11-12T01:04:54.285Z,3.29
2022-11-12T01:07:39.279Z,3.36
2022-11-12T01:10:24.428Z,3.24
2022-11-12T01:13:09.472Z,2.90
2022-11-12T01:15:54.500Z,2.92
2022-11-12T01:18:39.965Z,2.83
2022-11-12T01:21:28.039Z,2.84
2022-11-12T01:24:13.322Z,2.76
2022-11-12T01:26:58.164Z,2.70
2022-11-12T01:29:43.344Z,2.76
2022-11-12T01:32:28.330Z,2.62
2022-11-12T01:35:13.536Z,2.73
2022-11-12T01:37:58.322Z,2.68
2022-11-12T01:40:43.202Z,2.68
2022-11-12T01:43:28.040Z,2.77
2022-11-12T01:46:28.810Z,2.97
2022-11-12T01:49:39.310Z,2.97
2022-11-12T01:52:30.751Z,3.04
2022-11-12T01:55:26.288Z,3.19
2022-11-12T01:58:14.584Z,3.04
2022-11-12T02:01:02.132Z,2.92
2022-11-12T02:03:47.177Z,2.88
2022-11-12T02:06:34.153Z,2.86
2022-11-12T02:09:19.548Z,2.84
2022-11-12T02:12:05.531Z,2.81
2022-11-12T02:14:50.483Z,2.84
2022-11-12T02:17:35.530Z,2.78
2022-11-12T02:20:20.812Z,2.69
2022-11-12T02:23:07.705Z,2.55
2022-11-12T02:25:52.509Z,2.56
2022-11-12T02:28:37.739Z,2.34
2022-11-12T02:31:22.962Z,2.38
2022-11-12T02:34:07.891Z,2.40
2022-11-12T02:36:52.951Z,2.51
2022-11-12T02:39:37.991Z,2.44
2022-11-12T02:42:22.984Z,2.41
2022-11-12T02:45:07.991Z,2.55
2022-11-12T02:47:53.094Z,2.63
2022-11-12T02:50:37.859Z,2.49
2022-11-12T02:53:22.859Z,2.24
2022-11-12T02:56:07.800Z,2.01
2022-11-12T02:58:52.662Z,1.90
2022-11-12T03:01:37.785Z,1.75
2022-11-12T03:04:22.689Z,1.79
2022-11-12T03:07:07.640Z,1.72
2022-11-12T03:09:52.423Z,1.71
2022-11-12T03:12:37.278Z,1.65
2022-11-12T03:15:22.163Z,1.71
2022-11-12T03:18:07.665Z,1.72
2022-11-12T03:20:53.084Z,1.71
2022-11-12T03:23:38.287Z,1.83
2022-11-12T03:26:23.176Z,1.98
2022-11-12T03:29:08.025Z,2.07
2022-11-12T03:31:52.973Z,2.07
2022-11-12T03:34:37.766Z,2.20
2022-11-12T03:37:22.783Z,2.30
2022-11-12T03:40:08.110Z,2.21
2022-11-12T03:42:53.801Z,2.19
2022-11-12T03:45:38.945Z,1.96
2022-11-12T03:48:24.459Z,2.05
2022-11-12T03:51:12.139Z,2.01
2022-11-12T03:53:57.084Z,1.77
2022-11-12T03:56:42.003Z,1.80
2022-11-12T03:59:26.874Z,1.75
2022-11-12T04:02:14.324Z,1.80
2022-11-12T04:05:18.177Z,1.88
2022-11-12T04:08:26.443Z,1.92
2022-11-12T04:11:15.478Z,2.03
2022-11-12T04:14:00.709Z,2.11
2022-11-12T04:17:04.487Z,2.23
2022-11-12T04:20:08.160Z,2.18
2022-11-12T04:22:53.369Z,2.29
2022-11-12T04:25:58.438Z,2.48
2022-11-12T04:29:04.079Z,2.43
2022-11-12T04:31:49.409Z,2.05
2022-11-12T04:34:34.743Z,1.91
2022-11-12T04:37:23.477Z,1.93
2022-11-12T04:40:29.558Z,2.07
2022-11-12T04:43:35.161Z,2.21
2022-11-12T04:46:20.378Z,2.27
2022-11-12T04:49:05.407Z,2.47
2022-11-12T04:52:05.675Z,2.57
2022-11-12T04:54:51.313Z,2.55
2022-11-12T04:57:37.613Z,2.66
2022-11-12T05:00:23.084Z,2.62
2022-11-12T05:03:08.289Z,2.62
2022-11-12T05:05:53.511Z,2.80
2022-11-12T05:08:38.305Z,2.86
2022-11-12T05:11:23.359Z,2.87
2022-11-12T05:14:08.563Z,2.97
2022-11-12T05:16:53.424Z,2.82
2022-11-12T05:19:38.535Z,2.72
2022-11-12T05:22:42.656Z,2.50
2022-11-12T05:25:28.185Z,2.36
2022-11-12T05:28:13.280Z,2.17
2022-11-12T05:30:58.265Z,2.07
2022-11-12T05:33:43.427Z,2.03
2022-11-12T05:36:28.261Z,2.00
2022-11-12T05:39:13.180Z,2.08
2022-11-12T05:42:12.339Z,2.08
2022-11-12T05:44:58.142Z,2.18
2022-11-12T05:47:42.931Z,2.10
2022-11-12T05:50:34.956Z,2.16
2022-11-12T05:53:24.950Z,2.10
2022-11-12T05:56:11.237Z,2.18
2022-11-12T05:58:56.464Z,2.19
2022-11-12T06:01:44.339Z,2.22
2022-11-12T06:04:29.320Z,2.36
2022-11-12T06:07:14.266Z,2.34
2022-11-12T06:09:59.083Z,2.55
2022-11-12T06:12:44.013Z,2.47
2022-11-12T06:15:29.163Z,2.19
2022-11-12T06:18:14.557Z,2.02
2022-11-12T06:21:24.806Z,1.82
2022-11-12T06:24:10.116Z,1.64
2022-11-12T06:26:55.162Z,1.54
2022-11-12T06:29:40.414Z,1.29
2022-11-12T06:32:25.531Z,1.33
2022-11-12T06:35:10.431Z,1.34
2022-11-12T06:37:55.343Z,1.37
2022-11-12T06:40:40.303Z,1.48
2022-11-12T06:43:27.505Z,1.53
2022-11-12T06:46:17.374Z,1.50
2022-11-12T06:49:02.343Z,1.45
2022-11-12T06:51:51.120Z,1.36
2022-11-12T06:54:36.324Z,1.41
2022-11-12T06:57:21.332Z,1.48
2022-11-12T07:00:07.079Z,1.59
2022-11-12T07:02:52.092Z,1.58
2022-11-12T07:05:40.458Z,1.63
2022-11-12T07:08:25.737Z,1.63
2022-11-12T07:11:11.421Z,1.68
2022-11-12T07:13:56.743Z,1.78
2022-11-12T07:16:41.950Z,1.76
2022-11-12T07:19:27.032Z,1.85
2022-11-12T07:22:12.079Z,1.90
2022-11-12T07:24:57.111Z,2.13
2022-11-12T07:27:42.014Z,2.17
2022-11-12T07:30:26.847Z,2.11
2022-11-12T07:33:11.762Z,2.23
2022-11-12T07:36:01.303Z,2.34
2022-11-12T07:38:47.171Z,2.50
2022-11-12T07:41:32.399Z,2.64
2022-11-12T07:44:17.412Z,2.85
2022-11-12T07:47:02.340Z,3.02
2022-11-12T07:49:47.214Z,3.16
2022-11-12T07:52:33.088Z,3.31
2022-11-12T07:55:17.867Z,3.42
2022-11-12T07:58:02.672Z,3.58
2022-11-12T08:00:47.563Z,3.72
2022-11-12T08:03:32.432Z,3.98
2022-11-12T08:06:17.586Z,4.08
2022-11-12T08:09:04.785Z,4.18
2022-11-12T08:11:49.981Z,4.29
2022-11-12T08:14:34.750Z,4.42
2022-11-12T08:17:19.681Z,4.52
2022-11-12T08:20:04.822Z,4.70
2022-11-12T08:22:49.872Z,4.87
2022-11-12T08:25:36.166Z,5.00
2022-11-12T08:28:21.040Z,5.16
2022-11-12T08:31:14.838Z,5.33
2022-11-12T08:34:11.804Z,5.53
2022-11-12T08:36:56.954Z,5.68
2022-11-12T08:39:42.571Z,5.81
2022-11-12T08:42:27.847Z,5.95
2022-11-12T08:45:13.075Z,6.07
2022-11-12T08:48:16.495Z,6.20
2022-11-12T08:51:03.378Z,6.29
2022-11-12T08:53:48.210Z,6.35
2022-11-12T08:56:33.942Z,6.48
2022-11-12T08:59:19.116Z,6.57
2022-11-12T09:02:04.042Z,6.76
2022-11-12T09:04:48.893Z,6.84
2022-11-12T09:07:49.295Z,6.92
2022-11-12T09:10:35.690Z,7.05
2022-11-12T09:13:21.058Z,7.26
2022-11-12T09:16:07.454Z,7.48
2022-11-12T09:18:52.519Z,7.55
2022-11-12T09:21:37.389Z,7.61
2022-11-12T09:24:22.297Z,7.75
2022-11-12T09:27:07.264Z,7.95
2022-11-12T09:29:52.068Z,8.09
2022-11-12T09:32:37.266Z,8.29
2022-11-12T09:35:22.584Z,8.41
2022-11-12T09:38:07.416Z,8.56
2022-11-12T09:40:52.306Z,8.66
2022-11-12T09:43:48.456Z,8.65
2022-11-12T09:46:55.058Z,8.74
2022-11-12T09:50:10.916Z,8.80
2022-11-12T09:53:04.471Z,8.95
2022-11-12T09:55:50.209Z,9.18
2022-11-12T09:58:36.892Z,9.23
2022-11-12T10:01:38.832Z,9.24
2022-11-12T10:04:51.973Z,9.23
2022-11-12T10:07:48.978Z,9.36
2022-11-12T10:10:46.784Z,9.48
2022-11-12T10:13:45.991Z,9.65
2022-11-12T10:17:25.153Z,9.72
2022-11-12T10:20:29.060Z,9.88
2022-11-12T10:23:19.066Z,10.07
2022-11-12T10:26:13.032Z,10.08
2022-11-12T10:29:13.898Z,10.04
2022-11-12T10:32:01.720Z,10.12
2022-11-12T10:34:46.953Z,10.17
2022-11-12T10:37:46.948Z,10.22
2022-11-12T10:40:34.430Z,10.20
2022-11-12T10:43:20.967Z,10.23
2022-11-12T10:46:36.376Z,10.20
2022-11-12T10:49:24.316Z,10.36
2022-11-12T10:52:24.019Z,10.37
2022-11-12T10:55:24.831Z,10.37
2022-11-12T10:58:09.970Z,10.43
2022-11-12T11:01:12.895Z,10.53
2022-11-12T11:03:58.330Z,10.52
2022-11-12T11:06:43.880Z,10.34
2022-11-12T11:09:28.732Z,10.39
2022-11-12T11:12:27.499Z,10.28
2022-11-12T11:15:15.667Z,10.53
2022-11-12T11:18:00.919Z,10.22
2022-11-12T11:20:53.149Z,10.05
2022-11-12T11:23:55.956Z,9.99
2022-11-12T11:26:59.819Z,9.96
2022-11-12T11:30:03.171Z,9.91
2022-11-12T11:33:25.927Z,10.08
2022-11-12T11:36:21.964Z,10.13
2022-11-12T11:39:33.292Z,9.96
2022-11-12T11:42:47.712Z,10.13
2022-11-12T11:45:44.964Z,10.01
2022-11-12T11:48:54.808Z,9.88
2022-11-12T11:51:55.683Z,9.93
2022-11-12T11:54:53.051Z,10.16
2022-11-12T11:57:48.787Z,10.19
2022-11-12T12:01:06.337Z,10.06
2022-11-12T12:04:18.752Z,10.27
2022-11-12T12:07:12.533Z,10.19
2022-11-12T12:10:09.336Z,10.19
2022-11-12T12:13:08.074Z,10.21
2022-11-12T12:16:08.432Z,10.22
2022-11-12T12:19:02.649Z,10.21
2022-11-12T12:21:50.788Z,10.23
2022-11-12T12:25:15.555Z,10.04
2022-11-12T12:28:17.651Z,10.00
2022-11-12T12:31:07.041Z,10.07
2022-11-12T12:34:02.722Z,10.22
2022-11-12T12:36:53.759Z,10.19
2022-11-12T12:39:58.445Z,10.21
2022-11-12T12:42:50.987Z,10.10
2022-11-12T12:45:44.777Z,10.17
2022-11-12T12:48:34.196Z,10.25
2022-11-12T12:51:19.669Z,9.87
2022-11-12T12:54:04.618Z,9.95
2022-11-12T12:56:49.684Z,10.14
2022-11-12T12:59:34.961Z,10.19
2022-11-12T13:02:23.199Z,9.96
2022-11-12T13:05:24.709Z,10.21
2022-11-12T13:08:13.988Z,10.11
2022-11-12T13:10:59.554Z,10.00
2022-11-12T13:13:44.653Z,10.20
2022-11-12T13:16:51.384Z,10.18
2022-11-12T13:19:43.945Z,10.01
2022-11-12T13:22:38.132Z,10.18
2022-11-12T13:25:29.353Z,10.13
2022-11-12T13:28:14.580Z,10.25
2022-11-12T13:31:01.795Z,10.43
2022-11-12T13:33:47.666Z,10.46
2022-11-12T13:36:32.893Z,10.44
2022-11-12T13:39:20.130Z,10.26
2022-11-12T13:42:36.505Z,10.10
2022-11-12T13:45:25.218Z,10.10
2022-11-12T13:48:16.913Z,10.09
2022-11-12T13:51:06.713Z,10.06
2022-11-12T13:53:51.552Z,10.06
2022-11-12T13:56:37.554Z,10.04
2022-11-12T13:59:25.372Z,9.98
2022-11-12T14:02:23.112Z,9.82
2022-11-12T14:05:18.653Z,9.92
2022-11-12T14:08:29.641Z,9.96
2022-11-12T14:11:38.359Z,10.07
2022-11-12T14:14:57.292Z,10.17
2022-11-12T14:17:57.240Z,10.18
2022-11-12T14:20:42.839Z,10.21
2022-11-12T14:23:28.655Z,10.26
2022-11-12T14:26:33.479Z,10.20
2022-11-12T14:29:19.434Z,10.10
2022-11-12T14:32:08.732Z,10.12
2022-11-12T14:34:53.749Z,10.04
2022-11-12T14:37:43.361Z,9.68
2022-11-12T14:40:31.870Z,9.56
2022-11-12T14:43:37.626Z,9.44
2022-11-12T14:46:33.762Z,9.47
2022-11-12T14:49:43.967Z,9.43
2022-11-12T14:52:36.986Z,9.36
2022-11-12T14:55:28.751Z,9.35
2022-11-12T14:58:15.229Z,9.24
2022-11-12T15:01:44.919Z,9.17
2022-11-12T15:04:25.721Z,9.11
2022-11-12T15:07:27.602Z,9.05
2022-11-12T15:10:42.725Z,9.02
2022-11-12T15:13:28.541Z,8.94
2022-11-12T15:16:30.119Z,8.77
2022-11-12T15:19:26.414Z,8.42
2022-11-12T15:22:20.795Z,8.10
2022-11-12T15:25:22.727Z,8.00
2022-11-12T15:28:14.129Z,7.88
2022-11-12T15:31:08.348Z,7.73
2022-11-12T15:33:53.574Z,7.66
2022-11-12T15:36:41.349Z,7.68
2022-11-12T15:39:28.676Z,7.36
2022-11-12T15:42:26.625Z,7.20
2022-11-12T15:45:19.845Z,6.86
2022-11-12T15:48:05.111Z,6.79
2022-11-12T15:50:50.435Z,6.73
2022-11-12T15:53:35.497Z,6.67
2022-11-12T15:56:23.426Z,6.35
2022-11-12T15:59:14.671Z,6.16
2022-11-12T16:01:59.636Z,6.18
2022-11-12T16:04:44.504Z,6.07
2022-11-12T16:07:29.483Z,5.92
2022-11-12T16:10:16.880Z,5.77
2022-11-12T16:13:03.468Z,5.67
2022-11-12T16:15:51.462Z,5.58
2022-11-12T16:18:36.331Z,5.58
2022-11-12T16:21:21.275Z,5.46
2022-11-12T16:24:06.710Z,5.39
2022-11-12T16:26:52.227Z,5.29
2022-11-12T16:29:37.027Z,5.16
2022-11-12T16:32:22.031Z,5.13
2022-11-12T16:35:07.445Z,5.10
2022-11-12T16:37:55.575Z,5.12
2022-11-12T16:40:41.281Z,4.91
2022-11-12T16:43:26.625Z,4.54
2022-11-12T16:46:24.852Z,4.52
2022-11-12T16:49:13.600Z,4.65
2022-11-12T16:51:59.336Z,4.58
2022-11-12T16:54:44.527Z,4.45
2022-11-12T16:57:29.510Z,4.43
2022-11-12T17:00:17.481Z,4.45
2022-11-12T17:03:02.581Z,4.24
2022-11-12T17:05:52.608Z,4.19
2022-11-12T17:08:37.752Z,4.11
2022-11-12T17:11:23.211Z,4.13
2022-11-12T17:14:08.702Z,3.99
2022-11-12T17:16:53.650Z,4.15
2022-11-12T17:19:38.933Z,4.00
2022-11-12T17:22:24.010Z,3.97
2022-11-12T17:25:09.325Z,3.94
2022-11-12T17:27:54.417Z,3.88
2022-11-12T17:30:39.743Z,3.71
2022-11-12T17:33:25.080Z,3.57
2022-11-12T17:36:13.372Z,3.48
2022-11-12T17:39:00.116Z,3.48
2022-11-12T17:41:45.732Z,3.42
2022-11-12T17:44:31.008Z,3.53
2022-11-12T17:47:16.062Z,3.55
2022-11-12T17:50:00.948Z,3.71
2022-11-12T17:52:45.944Z,3.62
2022-11-12T17:55:30.691Z,3.51
2022-11-12T17:58:15.793Z,3.37
2022-11-12T18:01:06.730Z,3.14
2022-11-12T18:03:53.439Z,3.18
2022-11-12T18:06:38.540Z,3.16
2022-11-12T18:09:23.919Z,3.18
2022-11-12T18:12:09.267Z,3.23
2022-11-12T18:14:54.365Z,3.27
2022-11-12T18:17:39.341Z,3.22
2022-11-12T18:20:24.903Z,3.28
2022-11-12T18:23:09.902Z,3.50
2022-11-12T18:25:55.212Z,3.69
2022-11-12T18:28:43.332Z,3.70
2022-11-12T18:31:28.623Z,3.61
2022-11-12T18:34:15.018Z,3.61
2022-11-12T18:36:59.988Z,3.24
2022-11-12T18:39:44.945Z,2.91
2022-11-12T18:42:29.968Z,2.91
2022-11-12T18:45:14.918Z,2.92
2022-11-12T18:47:59.906Z,2.86
2022-11-12T18:50:44.710Z,2.91
2022-11-12T18:53:31.467Z,2.99
2022-11-12T18:56:18.777Z,3.05
2022-11-12T18:59:04.737Z,3.05
2022-11-12T19:01:50.057Z,2.83
2022-11-12T19:04:35.136Z,2.55
2022-11-12T19:07:20.423Z,2.48
2022-11-12T19:10:14.785Z,2.47
2022-11-12T19:13:03.758Z,2.52
2022-11-12T19:15:48.704Z,2.66
2022-11-12T19:18:34.472Z,2.64
2022-11-12T19:21:22.200Z,2.59
2022-11-12T19:24:07.597Z,2.52
2022-11-12T19:26:52.782Z,2.51
2022-11-12T19:29:37.974Z,2.63
2022-11-12T19:32:22.748Z,2.68
2022-11-12T19:35:08.139Z,2.69
2022-11-12T19:37:52.907Z,2.73
2022-11-12T19:40:38.027Z,2.73
2022-11-12T19:43:24.489Z,2.79
2022-11-12T19:46:10.701Z,2.87
2022-11-12T19:48:55.904Z,3.01
2022-11-12T19:51:40.738Z,2.97
2022-11-12T19:54:26.260Z,2.75
2022-11-12T19:57:11.126Z,2.54
2022-11-12T19:59:56.043Z,2.45
2022-11-12T20:02:40.987Z,2.44
2022-11-12T20:05:26.004Z,2.44
2022-11-12T20:08:11.218Z,2.39
2022-11-12T20:10:56.368Z,2.33
2022-11-12T20:13:41.518Z,2.29
2022-11-12T20:16:26.441Z,2.33
2022-11-12T20:19:11.430Z,2.38
2022-11-12T20:21:56.601Z,2.39
2022-11-12T20:24:41.501Z,2.36
2022-11-12T20:27:26.518Z,2.39
2022-11-12T20:30:12.045Z,2.49
2022-11-12T20:32:57.022Z,2.43
2022-11-12T20:35:42.196Z,1.99
2022-11-12T20:38:28.030Z,1.94
2022-11-12T20:41:16.384Z,1.94
2022-11-12T20:44:02.503Z,1.91
2022-11-12T20:46:47.379Z,1.95
2022-11-12T20:49:32.418Z,1.99
2022-11-12T20:52:17.453Z,1.97
2022-11-12T20:55:02.580Z,1.96
2022-11-12T20:57:47.733Z,2.14
2022-11-12T21:00:32.785Z,2.25
2022-11-12T21:03:17.885Z,2.40
2022-11-12T21:06:04.657Z,2.33
2022-11-12T21:08:50.431Z,2.30
2022-11-12T21:11:35.587Z,2.12
2022-11-12T21:14:20.539Z,1.98
2022-11-12T21:17:05.350Z,1.98
2022-11-12T21:19:50.371Z,1.98
2022-11-12T21:22:35.204Z,2.05
2022-11-12T21:25:20.109Z,2.12
2022-11-12T21:28:06.070Z,2.13
2022-11-12T21:30:52.326Z,2.00
2022-11-12T21:33:37.684Z,1.82
2022-11-12T21:36:22.939Z,1.80
2022-11-12T21:39:10.000Z,1.86
2022-11-12T21:41:54.963Z,1.79
2022-11-12T21:44:39.818Z,1.99
2022-11-12T21:47:25.217Z,2.06
2022-11-12T21:50:10.200Z,2.05
2022-11-12T21:52:58.388Z,2.00
2022-11-12T21:55:43.426Z,1.92
2022-11-12T21:58:29.622Z,1.89
2022-11-12T22:01:20.093Z,1.88
2022-11-12T22:04:07.482Z,1.89
2022-11-12T22:06:52.722Z,1.90
2022-11-12T22:09:37.903Z,1.99
2022-11-12T22:12:23.080Z,2.14
2022-11-12T22:15:08.315Z,1.86
2022-11-12T22:17:53.329Z,1.54
2022-11-12T22:20:38.591Z,1.21
2022-11-12T22:23:23.598Z,1.02
2022-11-12T22:26:14.277Z,0.82
2022-11-12T22:29:00.338Z,0.75
2022-11-12T22:31:45.319Z,0.76
2022-11-12T22:34:30.248Z,0.82
2022-11-12T22:37:15.090Z,0.73
2022-11-12T22:39:59.939Z,0.91
2022-11-12T22:42:44.676Z,0.90
2022-11-12T22:45:29.818Z,0.85
2022-11-12T22:48:14.966Z,0.81
2022-11-12T22:51:06.230Z,0.74
2022-11-12T22:54:00.380Z,0.67
2022-11-12T22:56:45.524Z,0.76
2022-11-12T22:59:30.696Z,0.84
2022-11-12T23:02:15.487Z,0.85
2022-11-12T23:05:00.405Z,0.88
2022-11-12T23:07:45.272Z,1.03
2022-11-12T23:10:31.840Z,1.10
2022-11-12T23:13:16.911Z,1.13
2022-11-12T23:16:05.745Z,1.14
2022-11-12T23:18:52.751Z,1.26
2022-11-12T23:21:37.941Z,1.25
2022-11-12T23:24:22.762Z,1.32
2022-11-12T23:27:07.663Z,1.49
2022-11-12T23:29:52.541Z,1.36
2022-11-12T23:32:37.492Z,1.26
2022-11-12T23:35:22.446Z,1.31
2022-11-12T23:38:07.416Z,1.12
2022-11-12T23:40:56.050Z,1.15
2022-11-12T23:43:41.269Z,1.13
2022-11-12T23:46:26.806Z,1.04
2022-11-12T23:49:12.050Z,0.99
2022-11-12T23:51:56.911Z,0.95
2022-11-12T23:54:41.832Z,1.06
2022-11-12T23:57:26.779Z,1.12
